Time;durP1;ratioP1;P1;durP2;ratioP2;P2;SDS_P1;SDS_P2;PMS_P1;PMS_P2;Temp;Humidity;BMP_temperature;BMP_pressure;BME280_temperature;BME280_humidity;BME280_pressure;Samples;Min_cycle;Max_cycle;Signal;HPM_P1;HPM_P2
2022/05/04 00:00:10;;;;;;;6.60;6.00;;;;;;;10.75;100.00;99273.22;4996373;28;20206;-79
2022/05/04 00:02:40;;;;;;;8.00;6.50;;;;;;;10.72;100.00;99277.19;4995938;28;20202;-79
2022/05/04 00:05:08;;;;;;;6.63;6.00;;;;;;;10.73;100.00;99278.00;4996278;28;20274;-79
2022/05/04 00:07:35;;;;;;;6.33;5.80;;;;;;;10.69;100.00;99274.94;4997246;28;20283;-78
2022/05/04 00:10:03;;;;;;;6.73;6.10;;;;;;;10.69;100.00;99282.97;4995798;28;20191;-78
2022/05/04 00:12:32;;;;;;;6.93;6.33;;;;;;;10.72;100.00;99287.09;4995862;28;20205;-78
2022/05/04 00:14:59;;;;;;;7.27;6.67;;;;;;;10.71;100.00;99275.56;4996362;28;20487;-78
2022/05/04 00:17:26;;;;;;;6.90;6.27;;;;;;;10.73;100.00;99280.69;4995568;28;20203;-79
2022/05/04 00:19:54;;;;;;;6.83;5.93;;;;;;;10.74;100.00;99279.63;4996342;28;20530;-79
2022/05/04 00:22:22;;;;;;;6.93;6.30;;;;;;;10.70;100.00;99275.78;4996750;28;20192;-78
2022/05/04 00:24:49;;;;;;;7.10;6.40;;;;;;;10.64;100.00;99272.13;4995467;28;20180;-78
2022/05/04 00:27:16;;;;;;;6.80;6.20;;;;;;;10.64;100.00;99271.34;4996711;28;20265;-78
2022/05/04 00:29:44;;;;;;;7.00;6.40;;;;;;;10.63;100.00;99270.53;4996561;28;20243;-79
2022/05/04 00:32:12;;;;;;;6.90;6.10;;;;;;;10.59;100.00;99270.13;4995781;28;20298;-80
2022/05/04 00:34:39;;;;;;;6.93;6.23;;;;;;;10.57;100.00;99272.25;4995173;28;20525;-79
2022/05/04 00:37:06;;;;;;;7.93;6.37;;;;;;;10.60;100.00;99277.13;4979320;28;20210;-78
2022/05/04 00:39:33;;;;;;;8.53;6.37;;;;;;;10.56;100.00;99267.94;4979822;28;20302;-79
2022/05/04 00:42:12;;;;;;;7.43;6.73;;;;;;;10.50;100.00;99279.53;4995654;28;20750;-79
2022/05/04 00:44:40;;;;;;;6.90;6.30;;;;;;;10.51;100.00;99280.38;4995294;28;20220;-79
2022/05/04 00:47:10;;;;;;;7.53;6.80;;;;;;;10.52;100.00;99279.31;4980070;28;20561;-79
2022/05/04 00:49:39;;;;;;;6.67;6.07;;;;;;;10.52;100.00;99284.69;4995809;28;20254;-79
2022/05/04 00:52:07;;;;;;;6.97;6.30;;;;;;;10.47;100.00;99280.00;4996401;28;20179;-79
2022/05/04 00:54:35;;;;;;;7.37;6.67;;;;;;;10.45;100.00;99274.06;4997058;28;20250;-78
2022/05/04 00:57:04;;;;;;;7.73;6.50;;;;;;;10.44;100.00;99277.78;4995911;28;20203;-79
2022/05/04 00:59:31;;;;;;;7.77;7.07;;;;;;;10.44;100.00;99275.13;4994723;28;20230;-78
2022/05/04 01:01:59;;;;;;;7.30;6.70;;;;;;;10.48;100.00;99287.00;4995325;28;20188;-79
2022/05/04 01:04:26;;;;;;;7.83;6.70;;;;;;;10.49;100.00;99283.28;4995947;28;20187;-78
2022/05/04 01:06:56;;;;;;;7.40;6.80;;;;;;;10.56;100.00;99286.69;4979330;28;20222;-78
2022/05/04 01:09:22;;;;;;;7.70;6.93;;;;;;;10.49;100.00;99290.50;4994745;28;20184;-79
2022/05/04 01:11:50;;;;;;;7.37;6.67;;;;;;;10.44;100.00;99287.69;4995096;28;20199;-79
2022/05/04 01:14:17;;;;;;;7.37;6.67;;;;;;;10.40;100.00;99287.34;4994291;28;20238;-78
2022/05/04 01:16:51;;;;;;;7.37;6.70;;;;;;;10.42;100.00;99281.72;4994979;28;20188;-78
2022/05/04 01:19:18;;;;;;;8.10;7.30;;;;;;;10.43;100.00;99284.19;4995082;28;20266;-78
2022/05/04 01:21:49;;;;;;;7.63;6.90;;;;;;;10.45;100.00;99292.78;4995601;28;20183;-79
2022/05/04 01:24:15;;;;;;;7.40;6.80;;;;;;;10.43;100.00;99300.25;4994534;28;20317;-78
2022/05/04 01:26:43;;;;;;;8.67;7.27;;;;;;;10.42;100.00;99297.78;4994537;28;20261;-79
2022/05/04 01:29:10;;;;;;;8.00;7.20;;;;;;;10.42;100.00;99297.78;4995488;28;20283;-78
2022/05/04 01:31:37;;;;;;;8.23;6.80;;;;;;;10.44;100.00;99285.84;4995856;28;20214;-79
2022/05/04 01:34:05;;;;;;;8.43;7.63;;;;;;;10.46;100.00;99289.09;4995389;28;20382;-78
2022/05/04 01:36:31;;;;;;;8.73;7.23;;;;;;;10.48;100.00;99287.00;4996607;28;20192;-79
2022/05/04 01:38:58;;;;;;;8.70;7.80;;;;;;;10.48;100.00;99299.56;4996019;28;20188;-78
2022/05/04 01:44:11;;;;;;;7.43;6.63;;;;;;;10.47;100.00;99295.25;4995673;28;20541;-78
2022/05/04 01:46:38;;;;;;;7.47;6.77;;;;;;;10.46;100.00;99290.94;4998623;28;20227;-80
2022/05/04 01:49:05;;;;;;;9.57;6.50;;;;;;;10.46;100.00;99281.03;4998171;28;20541;-78
2022/05/04 01:51:31;;;;;;;7.70;6.90;;;;;;;10.45;100.00;99279.41;4998347;28;20183;-79
2022/05/04 01:53:58;;;;;;;7.60;6.67;;;;;;;10.42;100.00;99279.88;4998540;28;20579;-78
2022/05/04 01:56:25;;;;;;;8.60;7.70;;;;;;;10.38;100.00;99285.91;4998929;28;20191;-79
2022/05/04 01:58:52;;;;;;;8.50;7.73;;;;;;;10.36;100.00;99288.81;4998502;28;20226;-79
2022/05/04 02:01:19;;;;;;;8.10;7.40;;;;;;;10.35;100.00;99286.38;4981924;28;20226;-79
2022/05/04 02:03:47;;;;;;;8.13;7.37;;;;;;;10.35;100.00;99287.19;4982137;28;20195;-79
2022/05/04 02:06:15;;;;;;;8.03;7.23;;;;;;;10.33;100.00;99289.25;4998238;28;20238;-79
2022/05/04 02:08:41;;;;;;;7.20;6.50;;;;;;;10.33;100.00;99288.44;4997946;28;20386;-77
2022/05/04 02:11:08;;;;;;;7.90;7.17;;;;;;;10.32;100.00;99290.31;4997609;28;20190;-79
2022/05/04 02:13:36;;;;;;;7.33;6.63;;;;;;;10.34;100.00;99287.41;4997863;28;20256;-78
2022/05/04 02:16:05;;;;;;;7.47;6.63;;;;;;;10.31;100.00;99280.63;4997789;28;20728;-79
2022/05/04 02:18:33;;;;;;;7.50;6.67;;;;;;;10.29;100.00;99277.38;4982506;28;20278;-78
2022/05/04 02:21:00;;;;;;;7.10;6.50;;;;;;;10.27;100.00;99273.28;4997084;28;20179;-78
2022/05/04 02:23:27;;;;;;;7.00;6.40;;;;;;;10.27;100.00;99275.94;4997097;28;20191;-80
2022/05/04 02:25:54;;;;;;;7.30;6.60;;;;;;;10.24;100.00;99276.41;4997698;28;20188;-77
2022/05/04 02:28:21;;;;;;;7.97;6.90;;;;;;;10.24;100.00;99271.88;4998095;28;20610;-78
2022/05/04 02:30:48;;;;;;;7.60;6.90;;;;;;;10.17;100.00;99279.19;4996601;28;20489;-78
2022/05/04 02:33:16;;;;;;;7.50;6.80;;;;;;;10.19;100.00;99286.97;4996925;28;20490;-78
2022/05/04 02:38:34;;;;;;;7.90;7.20;;;;;;;10.05;100.00;99289.78;4996978;28;20211;-79
2022/05/04 02:41:01;;;;;;;9.70;7.17;;;;;;;10.00;100.00;99288.81;4995399;28;20227;-78
2022/05/04 02:43:28;;;;;;;8.23;7.33;;;;;;;10.05;100.00;99286.28;4997358;28;20216;-78
2022/05/04 02:45:57;;;;;;;7.70;6.87;;;;;;;9.99;100.00;99290.69;4998041;28;20186;-78
2022/05/04 02:48:26;;;;;;;7.53;6.27;;;;;;;9.98;100.00;99304.31;4998494;28;20627;-78
2022/05/04 02:50:57;;;;;;;9.40;6.47;;;;;;;9.94;100.00;99306.59;4997349;28;20195;-78
2022/05/04 02:53:23;;;;;;;7.63;6.93;;;;;;;9.92;100.00;99302.50;4997970;28;20225;-79
2022/05/04 02:55:52;;;;;;;7.07;6.37;;;;;;;9.89;100.00;99297.63;4997161;28;20210;-78
2022/05/04 02:58:21;;;;;;;7.50;6.73;;;;;;;9.93;100.00;99304.16;4998463;28;20219;-78
2022/05/04 03:00:48;;;;;;;8.47;7.00;;;;;;;9.93;100.00;99302.28;4997524;28;20510;-78
2022/05/04 03:03:15;;;;;;;7.57;6.87;;;;;;;9.92;100.00;99299.84;4998592;28;20190;-78
2022/05/04 03:05:44;;;;;;;6.97;6.37;;;;;;;9.91;100.00;99306.22;4982105;28;20192;-79
2022/05/04 03:08:11;;;;;;;7.70;7.00;;;;;;;9.93;100.00;99307.66;4998929;28;20227;-79
2022/05/04 03:13:24;;;;;;;7.67;6.87;;;;;;;9.89;100.00;99313.66;4998281;28;20207;-78
2022/05/04 03:15:50;;;;;;;7.27;6.67;;;;;;;9.89;100.00;99313.66;4998845;28;20175;-78
2022/05/04 03:18:18;;;;;;;7.63;6.60;;;;;;;9.85;100.00;99312.44;4998293;28;20196;-78
2022/05/04 03:20:44;;;;;;;7.43;6.73;;;;;;;9.88;100.00;99320.88;4981657;28;20251;-78
2022/05/04 03:23:11;;;;;;;7.33;6.60;;;;;;;9.88;100.00;99320.88;4999624;28;20214;-80
2022/05/04 03:25:38;;;;;;;7.60;6.90;;;;;;;9.94;100.00;99317.28;4981727;28;20387;-79
2022/05/04 03:28:05;;;;;;;7.60;6.90;;;;;;;9.95;100.00;99323.47;4980932;28;20553;-78
2022/05/04 03:30:32;;;;;;;7.30;6.53;;;;;;;9.96;100.00;99320.56;4998066;28;20183;-80
2022/05/04 03:33:01;;;;;;;7.57;6.87;;;;;;;9.97;100.00;99324.91;4998952;28;20593;-79
2022/05/04 03:35:31;;;;;;;7.57;6.87;;;;;;;9.97;100.00;99326.75;4998734;28;20184;-78
2022/05/04 03:37:58;;;;;;;7.37;6.67;;;;;;;9.95;100.00;99331.50;4998097;28;20204;-79
2022/05/04 03:40:25;;;;;;;7.83;7.03;;;;;;;9.95;100.00;99324.28;4981368;28;20230;-77
2022/05/04 03:42:52;;;;;;;7.43;6.80;;;;;;;9.96;100.00;99325.94;4997053;28;20291;-78
2022/05/04 03:45:20;;;;;;;7.53;6.83;;;;;;;9.99;100.00;99321.97;4998099;28;20207;-78
2022/05/04 03:47:47;;;;;;;7.57;6.87;;;;;;;10.00;100.00;99327.13;4997351;28;20293;-78
2022/05/04 03:50:14;;;;;;;7.63;6.93;;;;;;;9.99;100.00;99328.16;4996829;28;20739;-78
2022/05/04 03:52:41;;;;;;;7.10;6.50;;;;;;;10.02;100.00;99327.72;4996883;28;20198;-78
2022/05/04 03:55:08;;;;;;;7.30;6.60;;;;;;;10.07;100.00;99335.91;4997125;28;20183;-78
2022/05/04 03:57:34;;;;;;;7.70;6.90;;;;;;;10.12;100.00;99343.25;4998617;28;20239;-78
2022/05/04 04:00:02;;;;;;;7.67;6.70;;;;;;;10.21;100.00;99349.16;4996126;28;20226;-81
2022/05/04 04:02:30;;;;;;;7.47;6.77;;;;;;;10.29;100.00;99347.00;4997709;28;20206;-78
2022/05/04 04:04:57;;;;;;;7.30;6.70;;;;;;;10.34;100.00;99349.00;4997324;28;20195;-79
2022/05/04 04:07:24;;;;;;;7.27;6.57;;;;;;;10.39;100.00;99344.59;4995855;28;20235;-78
2022/05/04 04:09:51;;;;;;;7.27;6.57;;;;;;;10.51;100.00;99355.38;4997639;28;20188;-78
2022/05/04 04:12:18;;;;;;;6.83;6.23;;;;;;;10.50;100.00;99351.88;4996741;28;20475;-79
2022/05/04 04:14:45;;;;;;;6.97;6.37;;;;;;;10.59;100.00;99358.53;4995973;28;20345;-78
2022/05/04 04:17:12;;;;;;;6.47;5.87;;;;;;;10.66;100.00;99368.38;4997088;28;20183;-78
2022/05/04 04:19:40;;;;;;;7.30;6.60;;;;;;;10.67;100.00;99362.78;4997601;28;20187;-81
2022/05/04 04:22:07;;;;;;;6.97;6.33;;;;;;;10.65;100.00;99370.22;4979918;28;20625;-79
2022/05/04 04:24:34;;;;;;;7.17;6.57;;;;;;;10.65;100.00;99378.25;4979811;28;20190;-78
2022/05/04 04:27:03;;;;;;;7.23;6.60;;;;;;;10.70;100.00;99383.75;4996942;28;20592;-78
2022/05/04 04:29:31;;;;;;;7.17;6.50;;;;;;;10.69;100.00;99384.81;4999917;28;20499;-79
2022/05/04 04:31:57;;;;;;;7.20;6.50;;;;;;;10.73;100.00;99388.66;4997363;28;20230;-78
2022/05/04 04:34:27;;;;;;;7.20;6.50;;;;;;;10.80;100.00;99389.41;4996558;28;20190;-78
2022/05/04 04:36:54;;;;;;;6.93;6.33;;;;;;;10.84;100.00;99393.25;4979956;28;20184;-78
2022/05/04 04:39:21;;;;;;;8.10;7.30;;;;;;;10.90;100.00;99394.22;4997227;28;20191;-78
2022/05/04 04:41:49;;;;;;;8.63;7.20;;;;;;;10.98;100.00;99394.72;4995429;28;20250;-79
2022/05/04 04:44:15;;;;;;;8.47;7.77;;;;;;;11.05;100.00;99400.00;4997359;28;20179;-79
2022/05/04 04:46:42;;;;;;;8.90;8.10;;;;;;;11.10;100.00;99399.31;4978915;28;20206;-78
2022/05/04 04:49:12;;;;;;;8.80;7.87;;;;;;;11.17;100.00;99406.19;4994972;28;20192;-79
2022/05/04 04:51:38;;;;;;;8.40;7.60;;;;;;;11.35;100.00;99411.50;4995701;28;20214;-79
2022/05/04 04:54:05;;;;;;;9.37;8.50;;;;;;;11.56;100.00;99410.16;4994911;28;20491;-78
2022/05/04 04:56:32;;;;;;;8.83;8.03;;;;;;;11.81;100.00;99418.00;4979781;28;20262;-79
2022/05/04 04:58:59;;;;;;;9.63;8.70;;;;;;;12.01;100.00;99421.19;4995765;28;20194;-77
2022/05/04 05:01:26;;;;;;;10.27;9.07;;;;;;;12.16;100.00;99418.03;4995567;28;20296;-79
2022/05/04 05:03:53;;;;;;;9.10;8.30;;;;;;;12.16;100.00;99426.91;4995719;28;20215;-79
2022/05/04 05:06:22;;;;;;;9.57;8.67;;;;;;;12.18;100.00;99423.97;4979892;28;20219;-80
2022/05/04 05:08:49;;;;;;;10.13;9.13;;;;;;;12.22;100.00;99420.59;4994967;28;20205;-80
2022/05/04 05:11:16;;;;;;;10.03;8.80;;;;;;;12.34;100.00;99426.75;4997202;28;20685;-78
2022/05/04 05:16:28;;;;;;;10.27;9.30;;;;;;;12.80;100.00;99427.69;4995018;28;20250;-79
2022/05/04 05:18:55;;;;;;;10.53;9.57;;;;;;;13.06;100.00;99424.47;4994155;28;20180;-78
2022/05/04 05:21:22;;;;;;;10.27;9.10;;;;;;;13.18;100.00;99427.94;4982423;28;20557;-79
2022/05/04 05:23:49;;;;;;;9.80;9.00;;;;;;;13.29;100.00;99439.72;4982707;28;20235;-79
2022/05/04 05:26:16;;;;;;;10.83;9.73;;;;;;;13.44;100.00;99442.66;4998390;28;20183;-78
2022/05/04 05:28:43;;;;;;;10.40;9.37;;;;;;;13.62;100.00;99439.72;4998477;28;20330;-79
2022/05/04 05:31:13;;;;;;;9.77;8.80;;;;;;;13.62;100.00;99437.03;4998823;28;20609;-78
2022/05/04 05:33:40;;;;;;;9.93;9.13;;;;;;;13.77;100.00;99428.41;4998989;28;20189;-79
2022/05/04 05:36:07;;;;;;;9.33;8.53;;;;;;;13.98;100.00;99438.44;4997992;28;20615;-77
2022/05/04 05:38:34;;;;;;;12.50;9.10;;;;;;;14.10;100.00;99432.94;4998115;28;20193;-79
2022/05/04 05:41:03;;;;;;;9.60;8.57;;;;;;;14.26;100.00;99434.81;4999218;28;20188;-79
2022/05/04 05:43:30;;;;;;;9.13;8.33;;;;;;;14.42;100.00;99433.16;5000696;28;20212;-79
2022/05/04 05:46:00;;;;;;;9.97;8.10;;;;;;;14.43;100.00;99435.63;4999257;28;20193;-79
2022/05/04 05:48:27;;;;;;;10.60;8.13;;;;;;;14.53;100.00;99435.75;4998358;28;20224;-78
2022/05/04 05:50:54;;;;;;;9.80;8.63;;;;;;;14.68;100.00;99440.53;4982216;28;20495;-81
2022/05/04 05:53:22;;;;;;;8.40;7.70;;;;;;;14.83;100.00;99439.91;4997205;28;20185;-79
2022/05/04 05:55:49;;;;;;;12.50;8.50;;;;;;;15.07;100.00;99435.84;4997047;28;20295;-79
2022/05/04 05:58:16;;;;;;;8.90;8.10;;;;;;;15.19;100.00;99436.53;4981221;28;20248;-80
2022/05/04 06:00:43;;;;;;;8.80;8.10;;;;;;;15.28;100.00;99429.59;4980248;28;20217;-75
2022/05/04 06:03:12;;;;;;;10.17;9.23;;;;;;;15.40;100.00;99440.22;4995911;28;20248;-78
2022/05/04 06:05:39;;;;;;;9.17;8.37;;;;;;;15.59;100.00;99443.41;4997742;28;20202;-79
2022/05/04 06:08:09;;;;;;;10.23;9.00;;;;;;;15.67;100.00;99443.78;4996661;28;20248;-81
2022/05/04 06:10:37;;;;;;;9.67;8.87;;;;;;;15.89;100.00;99446.38;4980708;28;20223;-79
2022/05/04 06:13:04;;;;;;;9.83;8.93;;;;;;;15.88;100.00;99443.94;4996599;28;20238;-78
2022/05/04 06:15:32;;;;;;;10.23;9.27;;;;;;;16.09;100.00;99441.13;4996730;28;20208;-79
2022/05/04 06:18:01;;;;;;;9.63;8.73;;;;;;;16.07;100.00;99442.44;4980816;28;20218;-80
2022/05/04 06:20:28;;;;;;;9.47;8.67;;;;;;;16.27;100.00;99439.88;4964066;28;20494;-80
2022/05/04 06:22:54;;;;;;;9.57;8.63;;;;;;;16.22;100.00;99446.09;4997159;28;20191;-79
2022/05/04 06:25:21;;;;;;;9.87;9.10;;;;;;;16.23;100.00;99441.50;4996242;28;20190;-79
2022/05/04 06:27:48;;;;;;;9.47;8.57;;;;;;;16.43;100.00;99441.59;4996243;28;20258;-78
2022/05/04 06:35:48;;;;;;;9.67;8.83;;;;;;;16.78;100.00;99448.28;5015013;23;20151;-78
2022/05/04 06:38:41;;;;;;;10.47;9.00;;;;;;;16.95;100.00;99448.91;5076465;28;20170;-79
2022/05/04 06:41:24;;;;;;;9.77;8.87;;;;;;;17.19;100.00;99450.06;5081504;28;20255;-80
2022/05/04 06:44:04;;;;;;;10.63;9.70;;;;;;;17.12;100.00;99447.59;5081237;28;20188;-79
2022/05/04 06:46:49;;;;;;;12.33;9.23;;;;;;;17.31;100.00;99445.19;5089117;28;20272;-80
2022/05/04 06:49:47;;;;;;;9.60;8.57;;;;;;;17.21;100.00;99447.91;5090407;28;20219;-78
2022/05/04 06:52:33;;;;;;;9.77;8.97;;;;;;;17.54;100.00;99442.00;5086305;28;20181;-83
2022/05/04 06:55:10;;;;;;;9.30;8.40;;;;;;;17.74;100.00;99440.41;5043996;28;20475;-81
2022/05/04 06:57:37;;;;;;;9.10;8.27;;;;;;;17.91;100.00;99440.97;5079968;28;20204;-81
2022/05/04 07:00:14;;;;;;;8.93;8.13;;;;;;;18.05;100.00;99439.34;5079303;28;20177;-81
2022/05/04 07:02:41;;;;;;;9.03;8.23;;;;;;;18.17;100.00;99436.31;5074512;28;20231;-80
2022/05/04 07:05:08;;;;;;;8.90;8.10;;;;;;;18.18;100.00;99435.25;5057397;28;20193;-82
2022/05/04 07:07:41;;;;;;;9.90;8.90;;;;;;;18.01;100.00;99436.34;5078922;28;20720;-80
2022/05/04 07:10:08;;;;;;;9.87;8.40;;;;;;;18.21;100.00;99431.97;5067286;28;20263;-82
2022/05/04 07:12:35;;;;;;;9.73;8.83;;;;;;;18.42;100.00;99433.56;5070900;28;20504;-82
2022/05/04 07:15:03;;;;;;;9.17;8.47;;;;;;;18.30;100.00;99431.13;5055899;28;20686;-81
2022/05/04 07:17:30;;;;;;;10.00;8.37;;;;;;;18.46;100.00;99424.59;5057027;28;20201;-81
2022/05/04 07:19:57;;;;;;;10.37;8.23;;;;;;;18.65;100.00;99429.47;5074168;28;20189;-80
2022/05/04 07:22:24;;;;;;;9.23;8.07;;;;;;;18.51;100.00;99429.19;5073944;28;20194;-82
2022/05/04 07:24:51;;;;;;;8.30;7.60;;;;;;;18.86;100.00;99431.81;5056188;28;20273;-81
2022/05/04 07:27:18;;;;;;;8.60;7.80;;;;;;;19.32;100.00;99432.34;5073561;28;20243;-81
2022/05/04 07:29:46;;;;;;;7.93;7.30;;;;;;;19.59;99.18;99434.69;5055763;28;20596;-77
2022/05/04 07:32:14;;;;;;;9.80;7.83;;;;;;;19.91;97.28;99439.59;5055763;28;20505;-79
2022/05/04 07:34:41;;;;;;;8.60;7.73;;;;;;;20.29;92.56;99437.06;5039620;28;20287;-77
2022/05/04 07:37:08;;;;;;;8.80;7.40;;;;;;;20.49;87.07;99434.94;5055620;28;20224;-84
2022/05/04 07:42:21;;;;;;;8.17;7.47;;;;;;;21.61;70.99;99439.75;5056195;28;20178;-79
2022/05/04 07:44:49;;;;;;;8.57;7.87;;;;;;;21.98;72.01;99435.38;5055129;28;20239;-84
2022/05/04 07:47:22;;;;;;;8.17;7.43;;;;;;;21.00;75.19;99431.59;5054605;28;20204;-81
2022/05/04 07:49:48;;;;;;;7.43;6.80;;;;;;;21.06;69.49;99433.16;5038323;28;20570;-82
2022/05/04 07:52:15;;;;;;;7.80;7.10;;;;;;;21.31;73.21;99438.31;5039141;28;20281;-78
2022/05/04 07:54:42;;;;;;;7.67;6.97;;;;;;;21.57;72.99;99435.19;5055290;28;20223;-76
2022/05/04 07:57:09;;;;;;;8.13;7.43;;;;;;;21.29;71.79;99434.22;5020382;28;20245;-78
2022/05/04 07:59:36;;;;;;;8.57;7.27;;;;;;;21.46;74.53;99434.53;5036064;28;20185;-79
2022/05/04 08:04:50;;;;;;;7.27;6.67;;;;;;;21.41;72.08;99446.34;5037896;28;20543;-79
2022/05/04 08:07:17;;;;;;;8.00;7.27;;;;;;;21.02;73.56;99443.03;5035526;28;20188;-77
2022/05/04 08:09:44;;;;;;;7.77;7.17;;;;;;;21.12;72.71;99451.06;5035108;28;20207;-78
2022/05/04 08:12:12;;;;;;;8.50;7.67;;;;;;;21.17;69.93;99453.75;5019031;28;20190;-77
2022/05/04 08:14:39;;;;;;;8.30;7.47;;;;;;;21.12;71.85;99444.81;5036085;28;20278;-78
2022/05/04 08:17:06;;;;;;;7.13;6.50;;;;;;;21.50;71.31;99455.47;5035138;28;20529;-79
2022/05/04 08:19:33;;;;;;;10.83;7.90;;;;;;;21.32;71.08;99448.06;5035274;28;20177;-82
2022/05/04 08:22:00;;;;;;;9.13;8.23;;;;;;;21.03;71.10;99448.19;5052324;28;20227;-80
2022/05/04 08:24:28;;;;;;;9.33;8.43;;;;;;;20.98;72.05;99448.25;5035768;28;20227;-83
2022/05/04 08:26:55;;;;;;;8.97;8.10;;;;;;;21.05;72.34;99445.97;5034707;28;20232;-81
2022/05/04 08:29:21;;;;;;;8.53;7.73;;;;;;;20.99;72.97;99444.44;5034566;28;20295;-79
2022/05/04 08:31:48;;;;;;;8.80;8.00;;;;;;;20.91;70.54;99441.53;5052529;28;20193;-85
2022/05/04 08:34:15;;;;;;;8.63;7.80;;;;;;;21.07;71.16;99446.50;5035345;28;20269;-79
2022/05/04 08:36:42;;;;;;;9.33;8.53;;;;;;;20.80;73.02;99448.22;5035411;28;20597;-82
2022/05/04 08:39:09;;;;;;;8.90;8.20;;;;;;;20.94;73.32;99454.56;5035175;28;20238;-84
2022/05/04 08:41:41;;;;;;;8.80;7.90;;;;;;;20.87;69.08;99444.03;5018758;28;20687;-79
2022/05/04 08:44:08;;;;;;;8.80;8.10;;;;;;;21.03;70.31;99444.66;5018830;28;20217;-81
2022/05/04 08:46:40;;;;;;;9.37;8.47;;;;;;;20.86;73.78;99456.00;5018735;28;20277;-80
2022/05/04 08:49:07;;;;;;;9.83;8.83;;;;;;;20.55;75.19;99452.03;5018454;28;20213;-80
2022/05/04 08:51:37;;;;;;;10.57;9.53;;;;;;;20.83;72.91;99448.44;5018661;28;20216;-82
2022/05/04 08:54:06;;;;;;;9.53;7.90;;;;;;;21.05;72.40;99451.41;5018057;28;20204;-80
2022/05/04 08:56:34;;;;;;;9.27;8.47;;;;;;;21.15;71.14;99453.22;5052288;28;20282;-85
2022/05/04 08:59:02;;;;;;;8.40;7.70;;;;;;;21.20;65.67;99455.88;5035131;28;20216;-84
2022/05/04 09:01:31;;;;;;;9.10;8.20;;;;;;;21.26;65.55;99448.44;5051832;28;20187;-82
2022/05/04 09:03:59;;;;;;;9.17;7.50;;;;;;;21.33;68.65;99452.41;5018325;28;20187;-83
2022/05/04 09:06:31;;;;;;;8.67;7.27;;;;;;;21.29;70.63;99447.84;5018590;28;20438;-83
2022/05/04 09:09:08;;;;;;;9.20;8.40;;;;;;;21.16;66.55;99454.03;5052017;28;20699;-85
2022/05/04 09:11:42;;;;;;;10.47;9.37;;;;;;;21.23;67.85;99451.78;5034958;28;20256;-83
2022/05/04 09:14:13;;;;;;;9.53;8.50;;;;;;;21.27;68.64;99445.44;5035220;28;20199;-83
2022/05/04 09:16:40;;;;;;;9.90;9.00;;;;;;;21.19;70.05;99454.25;5034700;28;20195;-83
2022/05/04 09:19:09;;;;;;;9.87;8.97;;;;;;;21.43;68.69;99446.03;5034586;28;20185;-82
2022/05/04 09:21:36;;;;;;;9.13;8.30;;;;;;;21.55;66.27;99440.94;5018404;28;20246;-84
2022/05/04 09:24:03;;;;;;;9.93;8.87;;;;;;;21.47;63.35;99445.13;5034496;28;20272;-81
2022/05/04 09:26:29;;;;;;;8.20;7.60;;;;;;;21.63;63.91;99453.91;5018328;28;20373;-81
2022/05/04 09:29:01;;;;;;;9.90;9.00;;;;;;;21.91;60.83;99450.19;5034130;28;20677;-84
2022/05/04 09:31:30;;;;;;;11.10;10.20;;;;;;;21.84;62.43;99444.28;5018083;28;20241;-82
2022/05/04 09:33:59;;;;;;;11.30;9.80;;;;;;;21.98;63.41;99441.63;5051925;28;20193;-84
2022/05/04 09:36:35;;;;;;;11.63;10.63;;;;;;;21.91;62.30;99444.72;5034526;28;20227;-82
2022/05/04 09:45:10;;;;;;;11.43;10.43;;;;;;;22.47;59.37;99432.03;5037294;28;20269;-81
2022/05/04 09:47:42;;;;;;;11.93;10.77;;;;;;;22.33;59.87;99423.81;5034711;28;20436;-83
2022/05/04 09:50:09;;;;;;;11.77;10.67;;;;;;;22.35;60.07;99427.84;5034260;28;20207;-83
2022/05/04 09:52:48;;;;;;;10.00;9.20;;;;;;;22.18;64.70;99429.56;5052290;28;20242;-85
2022/05/04 09:55:22;;;;;;;11.77;10.57;;;;;;;22.25;61.63;99419.88;5034607;28;20178;-83
2022/05/04 09:57:50;;;;;;;12.30;11.10;;;;;;;22.23;61.00;99419.34;5034333;28;20189;-84
2022/05/04 10:00:20;;;;;;;12.60;11.40;;;;;;;21.90;64.73;99425.91;5034408;28;20585;-81
2022/05/04 10:02:48;;;;;;;10.90;9.90;;;;;;;21.89;61.18;99416.09;5034132;28;20191;-84
2022/05/04 10:05:17;;;;;;;10.03;8.97;;;;;;;22.18;61.90;99411.25;5052142;28;20213;-83
2022/05/04 10:07:44;;;;;;;11.70;10.60;;;;;;;21.69;61.34;99414.56;5037962;28;20236;-81
2022/05/04 10:10:14;;;;;;;11.17;10.27;;;;;;;21.93;60.14;99409.78;5021487;28;20655;-81
2022/05/04 10:12:42;;;;;;;11.70;10.67;;;;;;;21.90;59.52;99406.81;5038013;28;20184;-84
2022/05/04 10:15:11;;;;;;;10.57;9.57;;;;;;;21.60;59.57;99407.34;5038675;28;20584;-79
2022/05/04 10:17:44;;;;;;;11.03;9.80;;;;;;;21.42;56.90;99389.88;5021632;28;20527;-82
2022/05/04 10:20:20;;;;;;;8.57;7.87;;;;;;;21.73;57.01;99395.69;5021055;28;20188;-80
2022/05/04 10:23:08;;;;;;;9.37;8.57;;;;;;;21.88;55.11;99396.19;5037313;28;20201;-83
2022/05/04 10:25:35;;;;;;;9.60;8.70;;;;;;;21.80;58.40;99401.53;5021004;28;20268;-82
2022/05/04 10:28:07;;;;;;;9.73;8.83;;;;;;;21.97;56.71;99395.56;5020536;28;20232;-81
2022/05/04 10:30:34;;;;;;;8.30;7.60;;;;;;;22.12;56.03;99395.28;5037360;28;20380;-85
2022/05/04 10:33:05;;;;;;;7.90;7.23;;;;;;;22.13;53.54;99391.44;5037421;28;20193;-83
2022/05/04 10:35:38;;;;;;;8.67;7.87;;;;;;;22.17;56.54;99389.72;5037528;28;20184;-80
2022/05/04 10:38:11;;;;;;;9.80;8.90;;;;;;;21.86;58.48;99395.72;5055018;28;20475;-80
2022/05/04 10:40:43;;;;;;;10.93;9.93;;;;;;;21.79;57.98;99378.91;5037147;28;20265;-79
2022/05/04 10:43:16;;;;;;;9.83;8.83;;;;;;;22.11;59.51;99385.50;5037333;28;20437;-79
2022/05/04 10:45:45;;;;;;;9.20;8.20;;;;;;;22.50;54.45;99380.34;5036367;28;20205;-77
2022/05/04 10:48:18;;;;;;;7.90;7.10;;;;;;;22.61;52.80;99373.56;5020648;28;20291;-83
2022/05/04 10:50:53;;;;;;;7.10;6.50;;;;;;;22.89;52.99;99368.91;5035945;28;20495;-78
2022/05/04 10:53:26;;;;;;;7.80;7.00;;;;;;;23.17;53.26;99358.72;5054591;28;20182;-80
2022/05/04 10:56:01;;;;;;;7.40;6.80;;;;;;;23.38;49.87;99343.44;5053970;28;20264;-77
2022/05/04 10:58:34;;;;;;;8.00;7.30;;;;;;;23.51;53.43;99348.09;5037018;28;20192;-78
2022/05/04 11:01:02;;;;;;;9.40;8.60;;;;;;;23.54;50.78;99343.91;5054119;28;20538;-80
2022/05/04 11:03:37;;;;;;;9.30;8.50;;;;;;;23.45;52.04;99335.66;5036252;28;20199;-81
2022/05/04 11:06:08;;;;;;;8.70;7.80;;;;;;;23.39;53.17;99338.78;5019844;28;20220;-80
2022/05/04 11:08:45;;;;;;;9.80;8.90;;;;;;;23.64;51.33;99335.47;5020558;28;20182;-78
2022/05/04 11:11:12;;;;;;;8.70;8.00;;;;;;;23.75;49.51;99333.28;5020223;28;20189;-81
2022/05/04 11:13:42;;;;;;;7.32;6.72;;;;;;;23.66;51.95;99333.22;5036904;28;20182;-77
2022/05/04 11:16:09;;;;;;;8.48;7.35;;;;;;;23.50;50.65;99329.25;5020044;28;20564;-77
2022/05/04 11:18:36;;;;;;;8.77;7.80;;;;;;;;;;5019236;28;20190;-76
2022/05/04 11:21:05;;;;;;;7.35;6.72;;;;;;;23.93;47.92;99335.81;5052040;28;20186;-81
2022/05/04 11:23:32;;;;;;;6.97;6.20;;;;;;;24.08;48.31;99340.03;5036055;28;20248;-78
2022/05/04 11:25:59;;;;;;;7.35;5.85;;;;;;;24.13;49.13;99343.44;5019649;28;20562;-84
2022/05/04 11:28:26;;;;;;;7.18;6.53;;;;;;;24.34;47.55;99343.72;5020042;28;20185;-77
2022/05/04 11:30:53;;;;;;;8.65;6.60;;;;;;;24.49;46.71;99335.09;5053116;28;20206;-79
2022/05/04 11:33:22;;;;;;;7.18;6.55;;;;;;;24.78;45.41;99347.38;5036102;28;20278;-78
2022/05/04 11:35:55;;;;;;;6.97;6.07;;;;;;;25.03;43.72;99343.88;5035947;28;20226;-78
2022/05/04 11:38:22;;;;;;;6.50;5.95;;;;;;;25.21;43.29;99347.44;5020035;28;20269;-79
2022/05/04 11:40:50;;;;;;;6.20;5.68;;;;;;;25.33;41.86;99350.34;5053338;28;20206;-81
2022/05/04 11:43:27;;;;;;;5.10;4.68;;;;;;;25.29;40.11;99352.13;5019378;28;20194;-78
2022/05/04 11:45:57;;;;;;;4.55;4.15;;;;;;;25.62;40.84;99350.50;5035375;28;20180;-79
2022/05/04 11:48:25;;;;;;;5.07;4.68;;;;;;;25.91;38.04;99343.50;5036212;28;20182;-80
2022/05/04 11:50:52;;;;;;;5.57;5.13;;;;;;;26.04;38.13;99339.72;5053111;28;20200;-81
2022/05/04 11:53:19;;;;;;;5.38;4.88;;;;;;;25.81;39.59;99337.22;5035661;28;20254;-83
2022/05/04 11:55:46;;;;;;;5.00;4.50;;;;;;;26.09;39.32;99329.38;5035605;28;20554;-81
2022/05/04 11:58:14;;;;;;;4.88;4.38;;;;;;;26.26;38.84;99318.38;5035724;28;20284;-80
2022/05/04 12:00:41;;;;;;;6.45;4.82;;;;;;;26.25;38.39;99329.66;5034860;28;20680;-79
2022/05/04 12:03:09;;;;;;;7.00;4.88;;;;;;;25.98;38.45;99317.16;5034595;28;20563;-81